createdAt,value
2023-04-25T00:00:31.865Z,24.39
2023-04-25T00:01:31.774Z,24.38
2023-04-25T00:02:31.870Z,24.38
2023-04-25T00:03:31.912Z,24.36
2023-04-25T00:04:31.977Z,24.35
2023-04-25T00:05:31.956Z,24.38
2023-04-25T00:06:31.771Z,24.36
2023-04-25T00:07:31.757Z,24.35
2023-04-25T00:08:31.755Z,24.31
2023-04-25T00:09:31.757Z,24.34
2023-04-25T00:10:31.892Z,24.35
2023-04-25T00:11:31.724Z,24.36
2023-04-25T00:12:31.737Z,24.38
2023-04-25T00:13:31.744Z,24.35
2023-04-25T00:14:31.702Z,24.35
2023-04-25T00:15:31.940Z,24.36
2023-04-25T00:16:31.850Z,24.36
2023-04-25T00:17:31.681Z,24.34
2023-04-25T00:18:31.671Z,24.35
2023-04-25T00:19:31.670Z,24.35
2023-04-25T00:20:31.940Z,24.36
2023-04-25T00:21:31.687Z,24.35
2023-04-25T00:22:31.637Z,24.35
2023-04-25T00:23:31.645Z,24.34
2023-04-25T00:24:31.653Z,24.36
2023-04-25T00:25:31.921Z,24.35
2023-04-25T00:26:31.680Z,24.36
2023-04-25T00:27:31.694Z,24.35
2023-04-25T00:28:31.689Z,24.34
2023-04-25T00:29:31.668Z,24.34
2023-04-25T00:30:31.671Z,24.32
2023-04-25T00:31:31.719Z,24.35
2023-04-25T00:32:31.708Z,24.36
2023-04-25T00:33:31.670Z,24.34
2023-04-25T00:34:31.690Z,24.32
2023-04-25T00:35:31.886Z,24.32
2023-04-25T00:36:31.673Z,24.34
2023-04-25T00:37:31.673Z,24.35
2023-04-25T00:38:31.684Z,24.31
2023-04-25T00:39:31.693Z,24.32
2023-04-25T00:40:31.957Z,24.35
2023-04-25T00:41:31.708Z,24.32
2023-04-25T00:42:31.698Z,24.32
2023-04-25T00:43:31.719Z,24.34
2023-04-25T00:44:31.728Z,24.34
2023-04-25T00:45:31.897Z,24.35
2023-04-25T00:46:31.805Z,24.34
2023-04-25T00:47:31.787Z,24.31
2023-04-25T00:48:31.750Z,24.34
2023-04-25T00:49:31.736Z,24.31
2023-04-25T00:50:31.920Z,24.34
2023-04-25T00:51:31.751Z,24.31
2023-04-25T00:52:31.753Z,24.32
2023-04-25T00:53:31.730Z,24.31
2023-04-25T00:54:31.768Z,24.34
2023-04-25T00:55:31.910Z,24.31
2023-04-25T00:56:31.785Z,24.35
2023-04-25T00:57:31.785Z,24.32
2023-04-25T00:58:31.771Z,24.34
2023-04-25T00:59:31.810Z,24.34
2023-04-25T01:00:31.924Z,24.31
2023-04-25T01:01:31.809Z,24.34
2023-04-25T01:02:31.954Z,24.32
2023-04-25T01:03:31.981Z,24.32
2023-04-25T01:04:31.866Z,24.32
2023-04-25T01:05:31.946Z,24.31
2023-04-25T01:06:31.814Z,24.31
2023-04-25T01:07:31.855Z,24.34
2023-04-25T01:08:31.873Z,24.32
2023-04-25T01:09:31.833Z,24.32
2023-04-25T01:10:31.879Z,24.31
2023-04-25T01:11:31.881Z,24.34
2023-04-25T01:12:31.907Z,24.32
2023-04-25T01:13:31.893Z,24.32
2023-04-25T01:14:31.906Z,24.30
2023-04-25T01:15:31.914Z,24.34
2023-04-25T01:16:31.929Z,24.34
2023-04-25T01:17:31.959Z,24.30
2023-04-25T01:18:31.929Z,24.32
2023-04-25T01:19:31.944Z,24.32
2023-04-25T01:20:31.944Z,24.30
2023-04-25T01:21:32.470Z,24.32
2023-04-25T01:22:31.959Z,24.31
2023-04-25T01:23:31.971Z,24.31
2023-04-25T01:24:31.981Z,24.31
2023-04-25T01:25:31.964Z,24.32
2023-04-25T01:26:32.429Z,24.32
2023-04-25T01:27:32.003Z,24.32
2023-04-25T01:28:31.970Z,24.30
2023-04-25T01:29:31.977Z,24.31
2023-04-25T01:30:31.958Z,24.31
2023-04-25T01:31:32.468Z,24.31
2023-04-25T01:32:32.008Z,24.30
2023-04-25T01:33:31.982Z,24.30
2023-04-25T01:34:32.009Z,24.28
2023-04-25T01:35:32.006Z,24.31
2023-04-25T01:36:32.452Z,24.28
2023-04-25T01:37:31.988Z,24.30
2023-04-25T01:38:31.987Z,24.30
2023-04-25T01:39:32.032Z,24.28
2023-04-25T01:40:32.018Z,24.30
2023-04-25T01:41:32.457Z,24.31
2023-04-25T01:42:32.001Z,24.30
2023-04-25T01:43:32.044Z,24.31
2023-04-25T01:44:32.077Z,24.30
2023-04-25T01:45:32.020Z,24.31
2023-04-25T01:46:32.604Z,24.31
2023-04-25T01:47:33.099Z,24.30
2023-04-25T01:48:32.073Z,24.31
2023-04-25T01:49:32.049Z,24.28
2023-04-25T01:50:32.047Z,24.31
2023-04-25T01:51:32.467Z,24.31
2023-04-25T01:52:32.046Z,24.32
2023-04-25T01:53:32.104Z,24.27
2023-04-25T01:54:32.104Z,24.30
2023-04-25T01:55:32.096Z,24.31
2023-04-25T01:56:32.064Z,24.31
2023-04-25T01:57:32.110Z,24.30
2023-04-25T01:58:32.113Z,24.28
2023-04-25T01:59:32.117Z,24.30
2023-04-25T02:00:32.141Z,24.28
2023-04-25T02:01:32.191Z,24.30
2023-04-25T02:02:32.266Z,24.27
2023-04-25T02:03:32.320Z,24.30
2023-04-25T02:04:32.190Z,24.30
2023-04-25T02:05:32.157Z,24.28
2023-04-25T02:06:32.416Z,24.31
2023-04-25T02:07:32.167Z,24.30
2023-04-25T02:08:32.189Z,24.28
2023-04-25T02:09:32.179Z,24.28
2023-04-25T02:10:32.185Z,24.30
2023-04-25T02:11:32.425Z,24.27
2023-04-25T02:12:32.230Z,24.28
2023-04-25T02:13:32.214Z,24.27
2023-04-25T02:14:32.962Z,24.25
2023-04-25T02:15:32.281Z,24.27
2023-04-25T02:16:32.506Z,24.27
2023-04-25T02:17:32.247Z,24.27
2023-04-25T02:18:32.261Z,24.28
2023-04-25T02:19:32.258Z,24.28
2023-04-25T02:20:32.261Z,24.27
2023-04-25T02:21:32.450Z,24.28
2023-04-25T02:22:32.238Z,24.28
2023-04-25T02:23:32.302Z,24.27
2023-04-25T02:24:32.290Z,24.24
2023-04-25T02:25:32.301Z,24.25
2023-04-25T02:26:32.438Z,24.27
2023-04-25T02:27:32.313Z,24.28
2023-04-25T02:28:32.326Z,24.27
2023-04-25T02:29:32.340Z,24.28
2023-04-25T02:30:32.355Z,24.27
2023-04-25T02:31:32.446Z,24.25
2023-04-25T02:32:32.380Z,24.25
2023-04-25T02:33:32.361Z,24.27
2023-04-25T02:34:32.378Z,24.27
2023-04-25T02:35:32.369Z,24.27
2023-04-25T02:36:32.456Z,24.27
2023-04-25T02:37:32.394Z,24.27
2023-04-25T02:38:32.393Z,24.25
2023-04-25T02:39:32.403Z,24.25
2023-04-25T02:40:32.404Z,24.28
2023-04-25T02:41:32.469Z,24.27
2023-04-25T02:42:32.432Z,24.27
2023-04-25T02:43:32.421Z,24.25
2023-04-25T02:44:32.444Z,24.28
2023-04-25T02:45:32.476Z,24.27
2023-04-25T02:47:33.548Z,24.27
2023-04-25T02:48:32.456Z,24.25
2023-04-25T02:49:32.467Z,24.28
2023-04-25T02:50:32.461Z,24.27
2023-04-25T02:51:32.456Z,24.27
2023-04-25T02:52:32.440Z,24.25
2023-04-25T02:53:32.526Z,24.27
2023-04-25T02:54:32.465Z,24.25
2023-04-25T02:55:32.483Z,24.22
2023-04-25T02:56:32.978Z,24.28
2023-04-25T02:57:32.522Z,24.27
2023-04-25T02:58:32.493Z,24.24
2023-04-25T02:59:32.501Z,24.27
2023-04-25T03:00:32.598Z,24.25
2023-04-25T03:01:32.949Z,24.27
2023-04-25T03:02:32.621Z,24.25
2023-04-25T03:03:32.628Z,24.27
2023-04-25T03:04:32.589Z,24.25
2023-04-25T03:05:32.575Z,24.25
2023-04-25T03:06:32.980Z,24.24
2023-04-25T03:07:32.594Z,24.25
2023-04-25T03:08:32.609Z,24.25
2023-04-25T03:09:32.604Z,24.25
2023-04-25T03:10:32.583Z,24.25
2023-04-25T03:11:32.965Z,24.25
2023-04-25T03:12:32.605Z,24.25
2023-04-25T03:13:32.610Z,24.25
2023-04-25T03:14:32.609Z,24.25
2023-04-25T03:15:32.597Z,24.24
2023-04-25T03:16:33.010Z,24.27
2023-04-25T03:17:32.653Z,24.22
2023-04-25T03:18:32.623Z,24.25
2023-04-25T03:19:32.675Z,24.24
2023-04-25T03:20:32.666Z,24.25
2023-04-25T03:21:32.980Z,24.27
2023-04-25T03:22:32.674Z,24.25
2023-04-25T03:23:32.675Z,24.25
2023-04-25T03:24:32.673Z,24.27
2023-04-25T03:25:32.725Z,24.24
2023-04-25T03:26:32.982Z,24.28
2023-04-25T03:27:32.657Z,24.25
2023-04-25T03:28:32.689Z,24.27
2023-04-25T03:29:32.717Z,24.25
2023-04-25T03:30:32.727Z,24.25
2023-04-25T03:31:32.992Z,24.22
2023-04-25T03:32:32.762Z,24.24
2023-04-25T03:33:32.738Z,24.22
2023-04-25T03:34:32.735Z,24.24
2023-04-25T03:35:32.767Z,24.25
2023-04-25T03:36:32.951Z,24.25
2023-04-25T03:37:32.778Z,24.27
2023-04-25T03:38:32.815Z,24.25
2023-04-25T03:39:32.816Z,24.24
2023-04-25T03:40:32.820Z,24.24
2023-04-25T03:41:32.825Z,24.25
2023-04-25T03:42:32.846Z,24.25
2023-04-25T03:43:32.876Z,24.25
2023-04-25T03:44:32.853Z,24.24
2023-04-25T03:45:32.905Z,24.22
2023-04-25T03:46:32.955Z,24.25
2023-04-25T03:47:32.973Z,24.25
2023-04-25T03:48:32.880Z,24.24
2023-04-25T03:49:32.899Z,24.25
2023-04-25T03:50:32.910Z,24.27
2023-04-25T03:51:32.895Z,24.22
2023-04-25T03:52:32.959Z,24.25
2023-04-25T03:53:32.949Z,24.24
2023-04-25T03:54:32.974Z,24.25
2023-04-25T03:55:32.968Z,24.24
2023-04-25T03:56:32.981Z,24.22
2023-04-25T03:57:32.987Z,24.25
2023-04-25T03:58:32.980Z,24.24
2023-04-25T03:59:33.008Z,24.24
2023-04-25T04:00:33.063Z,24.25
2023-04-25T04:01:33.004Z,24.25
2023-04-25T04:02:33.604Z,24.25
2023-04-25T04:03:33.238Z,24.25
2023-04-25T04:04:33.402Z,24.25
2023-04-25T04:05:33.102Z,24.21
2023-04-25T04:06:33.047Z,24.22
2023-04-25T04:07:33.057Z,24.25
2023-04-25T04:08:33.078Z,24.22
2023-04-25T04:09:33.066Z,24.22
2023-04-25T04:10:33.085Z,24.22
2023-04-25T04:11:33.062Z,24.22
2023-04-25T04:12:33.501Z,24.21
2023-04-25T04:13:33.107Z,24.22
2023-04-25T04:14:33.122Z,24.24
2023-04-25T04:15:33.180Z,24.22
2023-04-25T04:16:34.536Z,24.24
2023-04-25T04:17:33.192Z,24.22
2023-04-25T04:18:33.160Z,24.24
2023-04-25T04:19:33.179Z,24.22
2023-04-25T04:20:33.209Z,24.22
2023-04-25T04:21:33.202Z,24.22
2023-04-25T04:22:33.185Z,24.21
2023-04-25T04:23:33.192Z,24.24
2023-04-25T04:24:33.239Z,24.22
2023-04-25T04:25:33.270Z,24.22
2023-04-25T04:26:33.240Z,24.24
2023-04-25T04:27:33.268Z,24.24
2023-04-25T04:28:33.270Z,24.24
2023-04-25T04:29:33.263Z,24.21
2023-04-25T04:30:33.268Z,24.21
2023-04-25T04:31:33.344Z,24.22
2023-04-25T04:32:33.346Z,24.22
2023-04-25T04:33:33.360Z,24.22
2023-04-25T04:34:33.376Z,24.24
2023-04-25T04:35:33.388Z,24.22
2023-04-25T04:36:33.373Z,24.24
2023-04-25T04:37:33.525Z,24.22
2023-04-25T04:38:33.404Z,24.24
2023-04-25T04:39:33.445Z,24.21
2023-04-25T04:40:33.446Z,24.21
2023-04-25T04:41:33.475Z,24.21
2023-04-25T04:42:33.473Z,24.21
2023-04-25T04:43:33.495Z,24.21
2023-04-25T04:44:33.522Z,24.20
2023-04-25T04:45:33.508Z,24.20
2023-04-25T04:46:33.566Z,24.20
2023-04-25T04:47:34.033Z,24.21
2023-04-25T04:48:33.597Z,24.20
2023-04-25T04:49:33.564Z,24.21
2023-04-25T04:50:33.570Z,24.18
2023-04-25T04:51:33.567Z,24.20
2023-04-25T04:52:34.003Z,24.21
2023-04-25T04:53:33.646Z,24.20
2023-04-25T04:54:33.660Z,24.20
2023-04-25T04:55:33.630Z,24.20
2023-04-25T04:56:33.656Z,24.18
2023-04-25T04:57:34.057Z,24.18
2023-04-25T04:58:33.683Z,24.18
2023-04-25T04:59:33.739Z,24.18
2023-04-25T05:00:33.760Z,24.15
2023-04-25T05:01:33.733Z,24.17
2023-04-25T05:02:34.088Z,24.17
2023-04-25T05:03:33.905Z,24.20
2023-04-25T05:04:33.884Z,24.18
2023-04-25T05:05:33.785Z,24.15
2023-04-25T05:06:33.809Z,24.18
2023-04-25T05:07:34.013Z,24.18
2023-04-25T05:08:33.854Z,24.15
2023-04-25T05:09:33.858Z,24.18
2023-04-25T05:10:33.855Z,24.20
2023-04-25T05:11:33.876Z,24.17
2023-04-25T05:12:34.706Z,24.20
2023-04-25T05:13:33.908Z,24.18
2023-04-25T05:14:33.949Z,24.20
2023-04-25T05:15:33.986Z,24.18
2023-04-25T05:16:34.031Z,24.17
2023-04-25T05:17:34.072Z,24.18
2023-04-25T05:18:34.568Z,24.17
2023-04-25T05:19:34.027Z,24.18
2023-04-25T05:20:34.050Z,24.15
2023-04-25T05:21:34.052Z,24.15
2023-04-25T05:22:34.527Z,24.17
2023-04-25T05:23:34.085Z,24.20
2023-04-25T05:24:34.100Z,24.20
2023-04-25T05:25:34.199Z,24.17
2023-04-25T05:26:34.146Z,24.18
2023-04-25T05:27:34.553Z,24.18
2023-04-25T05:28:34.245Z,24.17
2023-04-25T05:29:34.200Z,24.18
2023-04-25T05:30:34.208Z,24.17
2023-04-25T05:31:34.284Z,24.18
2023-04-25T05:32:34.538Z,24.17
2023-04-25T05:33:34.261Z,24.17
2023-04-25T05:34:34.290Z,24.18
2023-04-25T05:35:34.360Z,24.18
2023-04-25T05:36:34.309Z,24.21
2023-04-25T05:37:34.510Z,24.18
2023-04-25T05:38:35.108Z,24.18
2023-04-25T05:39:34.383Z,24.17
2023-04-25T05:40:34.387Z,24.20
2023-04-25T05:41:34.435Z,24.20
2023-04-25T05:42:34.520Z,24.20
2023-04-25T05:43:34.429Z,24.20
2023-04-25T05:44:34.454Z,24.21
2023-04-25T05:45:34.547Z,24.21
2023-04-25T05:46:34.598Z,24.21
2023-04-25T05:47:34.586Z,24.21
2023-04-25T05:48:34.502Z,24.22
2023-04-25T05:49:34.552Z,24.22
2023-04-25T05:50:34.540Z,24.24
2023-04-25T05:51:34.620Z,24.22
2023-04-25T05:52:34.607Z,24.21
2023-04-25T05:53:34.613Z,24.24
2023-04-25T05:54:34.610Z,24.24
2023-04-25T05:55:34.620Z,24.24
2023-04-25T05:56:34.661Z,24.22
2023-04-25T05:57:35.012Z,24.22
2023-04-25T05:58:34.653Z,24.22
2023-04-25T05:59:34.693Z,24.27
2023-04-25T06:00:35.274Z,24.25
2023-04-25T06:01:34.726Z,24.24
2023-04-25T06:02:35.195Z,24.27
2023-04-25T06:03:34.893Z,24.27
2023-04-25T06:04:35.187Z,24.25
2023-04-25T06:05:34.861Z,24.25
2023-04-25T06:06:34.799Z,24.27
2023-04-25T06:07:34.834Z,24.28
2023-04-25T06:08:34.807Z,24.27
2023-04-25T06:09:34.817Z,24.27
2023-04-25T06:10:34.812Z,24.28
2023-04-25T06:11:34.835Z,24.28
2023-04-25T06:12:35.046Z,24.31
2023-04-25T06:13:34.838Z,24.28
2023-04-25T06:14:34.851Z,24.31
2023-04-25T06:15:34.953Z,24.32
2023-04-25T06:16:34.973Z,24.32
2023-04-25T06:17:34.925Z,24.31
2023-04-25T06:18:34.882Z,24.32
2023-04-25T06:19:34.859Z,24.32
2023-04-25T06:20:34.853Z,24.32
2023-04-25T06:21:34.883Z,24.34
2023-04-25T06:22:34.871Z,24.32
2023-04-25T06:23:34.877Z,24.32
2023-04-25T06:24:34.862Z,24.32
2023-04-25T06:25:34.930Z,24.34
2023-04-25T06:26:34.859Z,24.31
2023-04-25T06:27:35.092Z,24.32
2023-04-25T06:28:34.874Z,24.34
2023-04-25T06:29:34.890Z,24.30
2023-04-25T06:30:34.857Z,24.34
2023-04-25T06:31:34.940Z,24.31
2023-04-25T06:32:34.891Z,24.35
2023-04-25T06:33:34.858Z,24.32
2023-04-25T06:34:34.900Z,24.34
2023-04-25T06:35:34.874Z,24.32
2023-04-25T06:36:34.867Z,24.35
2023-04-25T06:37:34.873Z,24.35
2023-04-25T06:38:34.883Z,24.35
2023-04-25T06:39:34.864Z,24.36
2023-04-25T06:40:34.851Z,24.34
2023-04-25T06:41:34.883Z,24.34
2023-04-25T06:42:35.051Z,24.36
2023-04-25T06:43:34.881Z,24.34
2023-04-25T06:44:34.896Z,24.35
2023-04-25T06:45:34.868Z,24.38
2023-04-25T06:46:34.889Z,24.38
2023-04-25T06:47:35.096Z,24.35
2023-04-25T06:48:34.938Z,24.36
2023-04-25T06:49:34.822Z,24.38
2023-04-25T06:50:34.887Z,24.39
2023-04-25T06:51:34.871Z,24.41
2023-04-25T06:52:35.139Z,24.39
2023-04-25T06:53:34.982Z,24.39
2023-04-25T06:54:34.866Z,24.38
2023-04-25T06:55:34.864Z,24.39
2023-04-25T06:56:34.863Z,24.39
2023-04-25T06:57:34.860Z,24.38
2023-04-25T06:58:34.887Z,24.39
2023-04-25T06:59:34.858Z,24.39
2023-04-25T07:00:34.933Z,24.41
2023-04-25T07:01:34.850Z,24.41
2023-04-25T07:02:34.889Z,24.38
2023-04-25T07:03:35.257Z,24.38
2023-04-25T07:04:35.072Z,24.38
2023-04-25T07:05:34.872Z,24.39
2023-04-25T07:06:34.851Z,24.38
2023-04-25T07:07:34.825Z,24.42
2023-04-25T07:08:34.830Z,24.42
2023-04-25T07:09:34.897Z,24.41
2023-04-25T07:10:34.820Z,24.41
2023-04-25T07:11:34.813Z,24.41
2023-04-25T07:12:34.831Z,24.41
2023-04-25T07:13:34.822Z,24.41
2023-04-25T07:14:34.864Z,24.41
2023-04-25T07:15:34.852Z,24.42
2023-04-25T07:16:34.917Z,24.45
2023-04-25T07:17:34.866Z,24.43
2023-04-25T07:18:34.859Z,24.45
2023-04-25T07:19:34.846Z,24.43
2023-04-25T07:20:34.826Z,24.45
2023-04-25T07:21:34.807Z,24.48
2023-04-25T07:22:34.793Z,24.47
2023-04-25T07:23:35.091Z,24.47
2023-04-25T07:24:34.808Z,24.48
2023-04-25T07:25:34.792Z,24.48
2023-04-25T07:26:34.822Z,24.45
2023-04-25T07:27:34.799Z,24.48
2023-04-25T07:28:35.070Z,24.49
2023-04-25T07:29:34.771Z,24.48
2023-04-25T07:30:34.765Z,24.49
2023-04-25T07:31:34.923Z,24.48
2023-04-25T07:32:34.828Z,24.49
2023-04-25T07:33:35.067Z,24.48
2023-04-25T07:34:34.801Z,24.51
2023-04-25T07:35:34.829Z,24.52
2023-04-25T07:36:34.824Z,24.51
2023-04-25T07:37:34.816Z,24.51
2023-04-25T07:38:34.830Z,24.51
2023-04-25T07:39:34.829Z,24.51
2023-04-25T07:40:34.844Z,24.49
2023-04-25T07:41:34.853Z,24.51
2023-04-25T07:42:34.881Z,24.52
2023-04-25T07:43:35.195Z,24.49
2023-04-25T07:44:34.827Z,24.49
2023-04-25T07:45:34.991Z,24.51
2023-04-25T07:46:34.922Z,24.49
2023-04-25T07:47:34.933Z,24.49
2023-04-25T07:48:35.084Z,24.51
2023-04-25T07:49:34.839Z,24.54
2023-04-25T07:50:34.880Z,24.61
2023-04-25T07:51:34.916Z,24.63
2023-04-25T07:52:35.002Z,24.66
2023-04-25T07:53:35.114Z,24.73
2023-04-25T07:54:35.128Z,24.79
2023-04-25T07:55:35.151Z,24.83
2023-04-25T07:56:49.234Z,24.89
2023-04-25T07:57:36.213Z,24.93
2023-04-25T07:58:35.603Z,24.97
2023-04-25T07:59:35.181Z,24.97
2023-04-25T08:00:35.242Z,25.02
2023-04-25T08:01:35.196Z,25.10
2023-04-25T08:02:35.258Z,25.11
2023-04-25T08:03:35.739Z,25.17
2023-04-25T08:04:35.273Z,25.20
2023-04-25T08:05:35.188Z,25.23
2023-04-25T08:06:35.562Z,25.27
2023-04-25T08:07:35.129Z,25.29
2023-04-25T08:08:35.568Z,25.34
2023-04-25T08:09:35.117Z,25.38
2023-04-25T08:10:35.135Z,25.40
2023-04-25T08:11:35.111Z,25.44
2023-04-25T08:12:35.175Z,25.47
2023-04-25T08:13:35.120Z,25.47
2023-04-25T08:14:35.083Z,25.55
2023-04-25T08:15:35.074Z,25.55
2023-04-25T08:16:35.116Z,25.55
2023-04-25T08:17:35.112Z,25.61
2023-04-25T08:18:35.613Z,25.64
2023-04-25T08:19:35.160Z,25.65
2023-04-25T08:20:35.201Z,25.70
2023-04-25T08:21:35.267Z,25.71
2023-04-25T08:22:35.320Z,25.75
2023-04-25T08:23:35.581Z,25.78
2023-04-25T08:24:37.229Z,25.81
2023-04-25T08:25:35.430Z,25.84
2023-04-25T08:26:35.463Z,25.85
2023-04-25T08:27:35.405Z,25.91
2023-04-25T08:28:35.572Z,25.92
2023-04-25T08:29:35.424Z,25.92
2023-04-25T08:30:35.420Z,25.99
2023-04-25T08:31:35.431Z,25.99
2023-04-25T08:32:35.502Z,26.05
2023-04-25T08:33:35.595Z,26.03
2023-04-25T08:34:35.389Z,26.08
2023-04-25T08:35:35.423Z,26.12
2023-04-25T08:36:39.871Z,26.12
2023-04-25T08:37:35.349Z,26.18
2023-04-25T08:38:35.622Z,26.19
2023-04-25T08:39:35.390Z,26.21
2023-04-25T08:40:35.425Z,26.23
2023-04-25T08:41:35.339Z,26.29
2023-04-25T08:42:35.351Z,26.28
2023-04-25T08:43:35.577Z,26.31
2023-04-25T08:44:35.299Z,26.35
2023-04-25T08:45:35.336Z,26.35
2023-04-25T08:46:35.349Z,26.40
2023-04-25T08:47:35.321Z,26.42
2023-04-25T08:48:35.726Z,26.44
2023-04-25T08:49:35.292Z,26.46
2023-04-25T08:50:35.287Z,26.47
2023-04-25T08:51:35.263Z,26.49
2023-04-25T08:52:35.287Z,26.49
2023-04-25T08:53:36.282Z,26.50
2023-04-25T08:54:37.203Z,26.54
2023-04-25T08:55:35.297Z,26.52
2023-04-25T08:56:35.243Z,26.53
2023-04-25T08:57:35.234Z,26.56
2023-04-25T08:58:35.299Z,26.59
2023-04-25T08:59:36.208Z,26.60
2023-04-25T09:00:35.419Z,26.64
2023-04-25T09:01:35.526Z,26.63
2023-04-25T09:02:35.610Z,26.67
2023-04-25T09:03:35.856Z,26.69
2023-04-25T09:04:35.709Z,26.71
2023-04-25T09:05:35.741Z,26.73
2023-04-25T09:06:35.674Z,26.77
2023-04-25T09:07:35.763Z,26.79
2023-04-25T09:08:36.103Z,26.79
2023-04-25T09:09:35.892Z,26.83
2023-04-25T09:10:36.006Z,26.84
2023-04-25T09:11:35.958Z,26.84
2023-04-25T09:12:36.027Z,26.84
2023-04-25T09:13:36.108Z,26.86
2023-04-25T09:14:36.198Z,26.87
2023-04-25T09:15:36.263Z,26.87
2023-04-25T09:16:39.527Z,26.89
2023-04-25T09:17:36.457Z,26.90
2023-04-25T09:18:36.265Z,26.89
2023-04-25T09:20:40.420Z,26.90
2023-04-25T09:21:37.279Z,26.91
2023-04-25T09:22:36.223Z,26.90
2023-04-25T09:23:36.228Z,26.91
2023-04-25T09:24:36.598Z,26.91
2023-04-25T09:25:36.202Z,26.91
2023-04-25T09:26:36.219Z,26.93
2023-04-25T09:27:36.167Z,26.91
2023-04-25T09:28:36.248Z,26.87
2023-04-25T09:29:36.181Z,26.86
2023-04-25T09:30:36.202Z,26.84
2023-04-25T09:31:36.242Z,26.83
2023-04-25T09:32:36.262Z,26.80
2023-04-25T09:33:36.151Z,26.80
2023-04-25T09:34:36.170Z,26.80
2023-04-25T09:35:36.166Z,26.77
2023-04-25T09:36:36.200Z,26.74
2023-04-25T09:37:36.104Z,26.73
2023-04-25T09:38:36.166Z,26.73
2023-04-25T09:39:36.633Z,26.74
2023-04-25T09:40:36.126Z,26.74
2023-04-25T09:41:36.120Z,26.74
2023-04-25T09:42:36.116Z,26.74
2023-04-25T09:43:36.126Z,26.70
2023-04-25T09:44:36.198Z,26.60
2023-04-25T09:45:36.111Z,26.52
2023-04-25T09:46:36.197Z,26.47
2023-04-25T09:47:36.186Z,26.49
2023-04-25T09:48:36.219Z,26.50
2023-04-25T09:49:36.606Z,26.32
2023-04-25T09:50:36.294Z,26.23
2023-04-25T09:51:36.290Z,26.22
2023-04-25T09:52:36.401Z,26.21
2023-04-25T09:53:36.427Z,26.21
2023-04-25T09:54:36.625Z,26.21
2023-04-25T09:55:36.545Z,26.26
2023-04-25T09:56:36.568Z,26.28
2023-04-25T09:57:36.623Z,26.28
2023-04-25T09:58:36.656Z,26.32
2023-04-25T09:59:37.150Z,26.33
2023-04-25T10:00:36.718Z,26.32
2023-04-25T10:01:36.790Z,26.29
2023-04-25T10:02:37.771Z,26.32
2023-04-25T10:03:36.985Z,26.33
2023-04-25T10:04:37.161Z,26.23
2023-04-25T10:05:36.917Z,26.25
2023-04-25T10:06:36.958Z,26.25
2023-04-25T10:07:37.006Z,26.23
2023-04-25T10:08:37.045Z,26.25
2023-04-25T10:09:37.074Z,26.29
2023-04-25T10:10:37.109Z,26.22
2023-04-25T10:11:37.166Z,26.25
2023-04-25T10:12:37.218Z,26.28
2023-04-25T10:13:37.242Z,26.28
2023-04-25T10:14:37.290Z,26.28
2023-04-25T10:15:39.714Z,26.19
2023-04-25T10:16:37.297Z,26.13
2023-04-25T10:17:37.380Z,25.99
2023-04-25T10:18:37.277Z,25.93
2023-04-25T10:19:37.296Z,25.88
2023-04-25T10:20:37.270Z,25.77
2023-04-25T10:21:37.242Z,25.77
2023-04-25T10:22:37.271Z,25.72
2023-04-25T10:23:37.259Z,25.57
2023-04-25T10:24:37.271Z,25.58
2023-04-25T10:25:37.214Z,25.52
2023-04-25T10:26:37.257Z,25.54
2023-04-25T10:27:37.243Z,25.52
2023-04-25T10:28:37.242Z,25.44
2023-04-25T10:29:37.226Z,25.57
2023-04-25T10:30:37.269Z,25.60
2023-04-25T10:31:37.356Z,25.60
2023-04-25T10:32:37.231Z,25.68
2023-04-25T10:33:37.172Z,25.71
2023-04-25T10:34:37.641Z,25.77
2023-04-25T10:35:37.162Z,25.70
2023-04-25T10:36:37.176Z,25.67
2023-04-25T10:37:38.873Z,25.54
2023-04-25T10:38:37.182Z,25.47
2023-04-25T10:39:37.653Z,25.44
2023-04-25T10:40:37.135Z,25.47
2023-04-25T10:41:37.136Z,25.51
2023-04-25T10:42:37.132Z,25.52
2023-04-25T10:43:37.135Z,25.61
2023-04-25T10:44:37.284Z,25.64
2023-04-25T10:45:37.107Z,25.70
2023-04-25T10:46:37.719Z,25.72
2023-04-25T10:47:37.101Z,25.78
2023-04-25T10:48:37.098Z,25.85
2023-04-25T10:49:37.153Z,25.89
2023-04-25T10:50:37.076Z,25.96
2023-04-25T10:51:54.457Z,26.02
2023-04-25T10:52:38.029Z,26.05
2023-04-25T10:53:37.069Z,26.11
2023-04-25T10:54:37.155Z,26.18
2023-04-25T10:55:38.062Z,26.21
2023-04-25T10:56:37.021Z,26.23
2023-04-25T10:57:37.042Z,26.29
2023-04-25T10:58:37.024Z,26.33
2023-04-25T10:59:37.146Z,26.36
2023-04-25T11:00:53.206Z,26.39
2023-04-25T11:01:38.052Z,26.43
2023-04-25T11:02:37.136Z,26.49
2023-04-25T11:03:37.146Z,26.50
2023-04-25T11:04:37.527Z,26.53
2023-04-25T11:05:50.966Z,26.57
2023-04-25T11:06:37.968Z,26.63
2023-04-25T11:07:36.983Z,26.64
2023-04-25T11:08:36.984Z,26.69
2023-04-25T11:09:37.215Z,26.73
2023-04-25T11:10:36.957Z,26.77
2023-04-25T11:11:36.944Z,26.80
2023-04-25T11:12:36.928Z,26.84
2023-04-25T11:13:36.906Z,26.83
2023-04-25T11:14:37.161Z,26.86
2023-04-25T11:15:37.026Z,26.89
2023-04-25T11:16:37.118Z,26.91
2023-04-25T11:17:37.244Z,26.93
2023-04-25T11:18:37.185Z,26.95
2023-04-25T11:19:37.682Z,26.95
2023-04-25T11:20:37.375Z,26.98
2023-04-25T11:21:37.358Z,27.01
2023-04-25T11:22:37.437Z,27.03
2023-04-25T11:23:37.475Z,27.05
2023-04-25T11:24:37.703Z,27.08
2023-04-25T11:25:38.780Z,27.08
2023-04-25T11:26:37.596Z,27.12
2023-04-25T11:27:37.658Z,27.14
2023-04-25T11:28:37.682Z,27.17
2023-04-25T11:29:38.155Z,27.18
2023-04-25T11:30:37.775Z,27.22
2023-04-25T11:31:37.778Z,27.24
2023-04-25T11:32:38.198Z,27.24
2023-04-25T11:33:37.869Z,27.24
2023-04-25T11:34:38.217Z,27.30
2023-04-25T11:35:37.896Z,27.31
2023-04-25T11:36:37.913Z,27.32
2023-04-25T11:37:37.941Z,27.31
2023-04-25T11:38:37.972Z,27.31
2023-04-25T11:39:38.187Z,27.21
2023-04-25T11:40:38.021Z,27.18
2023-04-25T11:41:38.102Z,27.12
2023-04-25T11:42:38.154Z,27.12
2023-04-25T11:43:38.188Z,27.08
2023-04-25T11:44:38.706Z,27.03
2023-04-25T11:45:38.399Z,26.98
2023-04-25T11:46:38.514Z,26.93
2023-04-25T11:47:38.455Z,26.90
2023-04-25T11:48:38.435Z,26.83
2023-04-25T11:49:38.676Z,26.77
2023-04-25T11:50:38.459Z,26.74
2023-04-25T11:51:38.458Z,26.69
2023-04-25T11:52:38.525Z,26.67
2023-04-25T11:53:38.449Z,26.64
2023-04-25T11:54:38.659Z,26.60
2023-04-25T11:55:38.464Z,26.59
2023-04-25T11:56:38.485Z,26.57
2023-04-25T11:57:38.494Z,26.56
2023-04-25T11:58:38.512Z,26.54
2023-04-25T11:59:38.678Z,26.54
2023-04-25T12:00:38.546Z,26.46
2023-04-25T12:01:38.540Z,26.43
2023-04-25T12:02:38.650Z,26.38
2023-04-25T12:03:38.736Z,26.40
2023-04-25T12:04:38.903Z,26.32
2023-04-25T12:05:38.781Z,26.33
2023-04-25T12:06:38.741Z,26.29
2023-04-25T12:07:38.693Z,26.28
2023-04-25T12:08:38.837Z,26.25
2023-04-25T12:09:39.189Z,26.25
2023-04-25T12:10:38.808Z,26.22
2023-04-25T12:11:40.466Z,26.21
2023-04-25T12:12:38.886Z,26.19
2023-04-25T12:13:38.935Z,26.16
2023-04-25T12:14:38.946Z,26.13
2023-04-25T12:15:38.982Z,26.13
2023-04-25T12:16:39.133Z,26.09
2023-04-25T12:17:39.087Z,26.01
2023-04-25T12:18:40.317Z,26.02
2023-04-25T12:19:39.176Z,25.96
2023-04-25T12:20:39.241Z,25.98
2023-04-25T12:21:54.029Z,25.95
2023-04-25T12:22:40.292Z,25.93
2023-04-25T12:23:39.315Z,25.91
2023-04-25T12:24:39.702Z,25.89
2023-04-25T12:25:39.696Z,25.89
2023-04-25T12:26:39.266Z,25.85
2023-04-25T12:27:39.242Z,25.82
2023-04-25T12:28:39.277Z,25.81
2023-04-25T12:29:49.335Z,25.81
2023-04-25T12:30:41.315Z,25.75
2023-04-25T12:31:39.309Z,25.72
2023-04-25T12:32:39.298Z,25.72
2023-04-25T12:33:39.229Z,25.68
2023-04-25T12:34:39.224Z,25.67
2023-04-25T12:35:40.467Z,25.68
2023-04-25T12:36:39.317Z,25.68
2023-04-25T12:37:39.376Z,25.64
2023-04-25T12:38:39.389Z,25.61
2023-04-25T12:39:39.424Z,25.61
2023-04-25T12:40:39.478Z,25.58
2023-04-25T12:41:39.484Z,25.57
2023-04-25T12:42:39.523Z,25.48
2023-04-25T12:43:39.523Z,25.51
2023-04-25T12:44:39.521Z,25.47
2023-04-25T12:45:39.522Z,25.45
2023-04-25T12:46:39.561Z,25.45
2023-04-25T12:47:39.520Z,25.44
2023-04-25T12:48:39.530Z,25.41
2023-04-25T12:49:39.494Z,25.36
2023-04-25T12:50:39.510Z,25.36
2023-04-25T12:51:39.481Z,25.34
2023-04-25T12:52:39.489Z,25.36
2023-04-25T12:53:39.522Z,25.34
2023-04-25T12:54:39.501Z,25.31